Time;durP1;ratioP1;P1;durP2;ratioP2;P2;SDS_P1;SDS_P2;PMS_P1;PMS_P2;Temp;Humidity;BMP_temperature;BMP_pressure;BME280_temperature;BME280_humidity;BME280_pressure;Samples;Min_cycle;Max_cycle;Signal;HPM_P1;HPM_P2
2022/10/14 00:01:29;;;;;;;128.05;33.72;;;;;;;;;;5009707;28;20530;-76
2022/10/14 00:03:55;;;;;;;139.27;34.17;;;;;;;;;;5003416;28;20112;-76
2022/10/14 00:06:23;;;;;;;112.55;30.67;;;;;;;;;;5010307;28;20022;-76
2022/10/14 00:08:49;;;;;;;238.43;37.13;;;;;;;;;;5003955;28;20026;-75
2022/10/14 00:11:20;;;;;;;117.30;31.20;;;;;;;;;;5033870;28;20026;-76
2022/10/14 00:13:46;;;;;;;148.25;31.85;;;;;;;;;;5017674;28;20022;-75
2022/10/14 00:16:20;;;;;;;397.38;35.70;;;;;;;;;;5014472;28;20022;-74
2022/10/14 00:18:46;;;;;;;205.63;35.90;;;;;;;;;;5014700;28;20472;-76
2022/10/14 00:21:12;;;;;;;240.85;34.88;;;;;;;;;;5014431;28;20051;-73
2022/10/14 00:23:38;;;;;;;123.68;31.42;;;;;;;;;;5014260;28;20094;-76
2022/10/14 00:26:05;;;;;;;132.93;30.65;;;;;;;;;;4996719;28;20034;-74
2022/10/14 00:28:31;;;;;;;201.95;34.92;;;;;;;;;;4995204;28;20022;-76
2022/10/14 00:31:01;;;;;;;127.93;30.85;;;;;;;;;;4995201;28;20034;-76
2022/10/14 00:33:27;;;;;;;147.68;30.30;;;;;;;;;;4994984;28;20041;-75
2022/10/14 00:35:58;;;;;;;154.60;31.48;;;;;;;;;;4994728;28;20470;-76
2022/10/14 00:38:24;;;;;;;135.90;31.05;;;;;;;;;;4994972;28;20087;-75
2022/10/14 00:40:50;;;;;;;131.23;29.92;;;;;;;;;;5025899;28;20025;-76
2022/10/14 00:43:16;;;;;;;124.30;28.90;;;;;;;;;;5034387;28;20496;-76
2022/10/14 00:45:43;;;;;;;194.90;29.70;;;;;;;;;;5024393;28;20036;-74
2022/10/14 00:48:09;;;;;;;121.78;27.40;;;;;;;;;;5014377;28;20123;-76
2022/10/14 00:50:36;;;;;;;118.18;27.55;;;;;;;;;;5014133;28;20026;-75
2022/10/14 00:53:02;;;;;;;141.88;27.65;;;;;;;;;;5014132;28;20028;-75
2022/10/14 00:55:28;;;;;;;83.40;23.38;;;;;;;;;;4996410;28;20032;-76
2022/10/14 00:57:55;;;;;;;110.72;23.95;;;;;;;;;;5014022;28;20480;-76
2022/10/14 01:00:21;;;;;;;130.68;24.98;;;;;;;;;;5014094;28;20116;-75
2022/10/14 01:02:48;;;;;;;114.68;24.02;;;;;;;;;;5014028;28;20038;-76
2022/10/14 01:05:15;;;;;;;218.15;26.88;;;;;;;;;;5014027;28;20030;-76
2022/10/14 01:07:53;;;;;;;148.63;23.65;;;;;;;;;;4994141;28;20088;-76
2022/10/14 01:10:34;;;;;;;120.72;24.77;;;;;;;;;;5025231;28;20112;-76
2022/10/14 01:13:06;;;;;;;96.95;23.83;;;;;;;;;;5023243;28;20018;-76
2022/10/14 01:15:42;;;;;;;91.30;22.75;;;;;;;;;;5013715;28;20030;-76
2022/10/14 01:18:18;;;;;;;129.73;25.33;;;;;;;;;;5013649;28;20021;-75
2022/10/14 01:20:57;;;;;;;82.03;24.13;;;;;;;;;;5013736;28;20453;-76
2022/10/14 01:23:35;;;;;;;70.35;21.75;;;;;;;;;;5013624;28;20480;-75
2022/10/14 01:26:07;;;;;;;104.05;23.48;;;;;;;;;;4996116;28;20046;-75
2022/10/14 01:28:42;;;;;;;79.20;25.08;;;;;;;;;;4996180;28;20384;-75
2022/10/14 01:31:10;;;;;;;149.40;29.55;;;;;;;;;;5013626;28;20499;-75
2022/10/14 01:33:38;;;;;;;122.80;28.10;;;;;;;;;;5013671;28;20063;-76
2022/10/14 01:36:10;;;;;;;294.98;32.55;;;;;;;;;;5013234;28;20033;-75
2022/10/14 01:38:50;;;;;;;66.47;24.08;;;;;;;;;;5013484;28;20430;-76
2022/10/14 01:41:22;;;;;;;88.80;26.35;;;;;;;;;;5032915;28;20033;-76
2022/10/14 01:43:49;;;;;;;78.50;24.95;;;;;;;;;;5033261;28;20064;-76
2022/10/14 01:46:16;;;;;;;88.57;25.42;;;;;;;;;;5033174;28;20025;-73
2022/10/14 01:48:48;;;;;;;103.25;26.83;;;;;;;;;;5033125;28;20441;-76
2022/10/14 01:51:16;;;;;;;93.28;21.23;;;;;;;;;;5015113;28;20025;-75
2022/10/14 01:53:45;;;;;;;79.40;21.42;;;;;;;;;;5033063;28;20037;-73
2022/10/14 01:56:11;;;;;;;84.60;22.30;;;;;;;;;;5010985;28;20107;-73
2022/10/14 01:58:38;;;;;;;137.05;21.75;;;;;;;;;;4993567;28;20076;-73
2022/10/14 02:01:06;;;;;;;89.72;21.08;;;;;;;;;;4993234;28;20045;-73
2022/10/14 02:03:39;;;;;;;71.63;20.35;;;;;;;;;;4993447;28;20074;-73
2022/10/14 02:06:07;;;;;;;80.63;19.83;;;;;;;;;;4996020;28;20080;-76
2022/10/14 02:08:35;;;;;;;63.88;19.92;;;;;;;;;;4994351;28;20030;-76
2022/10/14 02:11:14;;;;;;;90.28;20.23;;;;;;;;;;5010057;28;20109;-75
2022/10/14 02:13:43;;;;;;;59.72;19.50;;;;;;;;;;5012456;28;20026;-75
2022/10/14 02:16:32;;;;;;;57.85;20.20;;;;;;;;;;5012597;28;20030;-76
2022/10/14 02:19:21;;;;;;;222.80;25.42;;;;;;;;;;5012532;28;20022;-76
2022/10/14 02:21:53;;;;;;;57.20;20.52;;;;;;;;;;5002088;28;20476;-76
2022/10/14 02:24:26;;;;;;;273.23;30.13;;;;;;;;;;4990534;28;20026;-76
2022/10/14 02:26:54;;;;;;;63.78;22.98;;;;;;;;;;4992325;28;20113;-76
2022/10/14 02:29:21;;;;;;;82.75;24.20;;;;;;;;;;4990732;28;20022;-77
2022/10/14 02:31:48;;;;;;;137.00;26.25;;;;;;;;;;4992904;28;20489;-76
2022/10/14 02:34:17;;;;;;;128.02;28.52;;;;;;;;;;4992585;28;20053;-76
2022/10/14 02:36:44;;;;;;;95.30;26.35;;;;;;;;;;4992707;28;20434;-76
2022/10/14 02:39:12;;;;;;;88.57;25.42;;;;;;;;;;4996535;28;20433;-76
2022/10/14 02:41:38;;;;;;;99.43;28.02;;;;;;;;;;5032030;28;20373;-76
2022/10/14 02:44:05;;;;;;;97.15;27.65;;;;;;;;;;5032309;28;20384;-76
2022/10/14 02:46:32;;;;;;;101.25;27.65;;;;;;;;;;5012712;28;20037;-76
2022/10/14 02:48:58;;;;;;;327.50;36.90;;;;;;;;;;5012338;28;20018;-73
2022/10/14 02:51:24;;;;;;;71.57;26.10;;;;;;;;;;4994443;28;20385;-76
2022/10/14 02:53:50;;;;;;;112.00;28.52;;;;;;;;;;5012206;28;20033;-76
2022/10/14 02:56:17;;;;;;;86.70;27.77;;;;;;;;;;4994498;28;20476;-76
2022/10/14 02:58:43;;;;;;;98.10;27.50;;;;;;;;;;5012202;28;20381;-76
2022/10/14 03:01:09;;;;;;;72.25;25.60;;;;;;;;;;5011734;28;20057;-75
2022/10/14 03:03:35;;;;;;;88.97;28.25;;;;;;;;;;5012093;28;20112;-76
2022/10/14 03:06:01;;;;;;;217.32;33.13;;;;;;;;;;5008122;28;20030;-75
2022/10/14 03:08:27;;;;;;;87.63;28.33;;;;;;;;;;5003381;28;20393;-76
2022/10/14 03:10:53;;;;;;;79.07;27.48;;;;;;;;;;5024221;28;20025;-76
2022/10/14 03:13:19;;;;;;;63.10;24.83;;;;;;;;;;5017916;28;20034;-76
2022/10/14 03:15:48;;;;;;;74.75;25.23;;;;;;;;;;5011755;28;20112;-75
2022/10/14 03:18:14;;;;;;;70.13;26.58;;;;;;;;;;5011837;28;20022;-76
2022/10/14 03:20:40;;;;;;;61.25;25.10;;;;;;;;;;5011902;28;20034;-76
2022/10/14 03:23:06;;;;;;;68.95;27.40;;;;;;;;;;5011898;28;20022;-75
2022/10/14 03:25:32;;;;;;;58.50;25.48;;;;;;;;;;4997993;28;20123;-75
2022/10/14 03:27:58;;;;;;;69.03;26.35;;;;;;;;;;4992136;28;20106;-75
2022/10/14 03:30:24;;;;;;;104.35;30.67;;;;;;;;;;4992145;28;20084;-75
2022/10/14 03:32:50;;;;;;;75.47;28.60;;;;;;;;;;4992390;28;20540;-75
2022/10/14 03:35:16;;;;;;;92.43;31.10;;;;;;;;;;4990500;28;20034;-75
2022/10/14 03:37:42;;;;;;;106.65;30.30;;;;;;;;;;4992026;28;20135;-75
2022/10/14 03:40:09;;;;;;;83.40;29.33;;;;;;;;;;5011558;28;20496;-76
2022/10/14 03:42:35;;;;;;;67.63;26.30;;;;;;;;;;5035125;28;20037;-75
2022/10/14 03:45:01;;;;;;;66.50;27.40;;;;;;;;;;5022026;28;20109;-75
2022/10/14 03:47:27;;;;;;;89.07;31.45;;;;;;;;;;4995982;28;20361;-75
2022/10/14 03:49:53;;;;;;;83.50;29.63;;;;;;;;;;4995816;28;20053;-75
2022/10/14 03:52:19;;;;;;;79.18;29.65;;;;;;;;;;4995784;28;20493;-75
2022/10/14 03:54:45;;;;;;;72.63;28.52;;;;;;;;;;4996161;28;20043;-75
2022/10/14 03:57:11;;;;;;;95.10;31.98;;;;;;;;;;5010466;28;20069;-75
2022/10/14 03:59:38;;;;;;;122.25;32.17;;;;;;;;;;4995891;28;20093;-75
2022/10/14 04:02:04;;;;;;;78.45;30.10;;;;;;;;;;5010750;28;20034;-76
2022/10/14 04:04:30;;;;;;;78.38;29.55;;;;;;;;;;4995943;28;20096;-75
2022/10/14 04:06:56;;;;;;;81.95;31.73;;;;;;;;;;4983811;28;20029;-75
2022/10/14 04:09:22;;;;;;;89.65;31.52;;;;;;;;;;5007618;28;20491;-75
2022/10/14 04:11:49;;;;;;;76.50;29.13;;;;;;;;;;5033376;28;20171;-76
2022/10/14 04:14:15;;;;;;;88.10;30.23;;;;;;;;;;5015129;28;20034;-75
2022/10/14 04:16:41;;;;;;;92.90;32.83;;;;;;;;;;5015232;28;20026;-75
2022/10/14 04:19:07;;;;;;;80.75;30.25;;;;;;;;;;5015010;28;20034;-75
2022/10/14 04:21:33;;;;;;;119.47;34.60;;;;;;;;;;5015097;28;20025;-75
2022/10/14 04:23:59;;;;;;;89.35;31.85;;;;;;;;;;5015073;28;20017;-75
2022/10/14 04:26:25;;;;;;;110.93;34.25;;;;;;;;;;5015011;28;20045;-75
2022/10/14 04:28:51;;;;;;;97.20;33.88;;;;;;;;;;5014927;28;20030;-75
2022/10/14 04:31:17;;;;;;;84.20;31.85;;;;;;;;;;5014888;28;20038;-75
2022/10/14 04:33:43;;;;;;;117.03;35.08;;;;;;;;;;5014770;28;20473;-76
2022/10/14 04:36:09;;;;;;;105.68;33.53;;;;;;;;;;5014300;28;20408;-76
2022/10/14 04:38:35;;;;;;;110.88;34.45;;;;;;;;;;5014595;28;20448;-76
2022/10/14 04:41:01;;;;;;;104.53;34.60;;;;;;;;;;5031576;28;20480;-75
2022/10/14 04:43:27;;;;;;;150.18;35.40;;;;;;;;;;5034328;28;20412;-75
2022/10/14 04:45:53;;;;;;;102.22;33.40;;;;;;;;;;5002459;28;20026;-75
2022/10/14 04:48:19;;;;;;;103.53;33.22;;;;;;;;;;5014610;28;20037;-75
2022/10/14 04:50:45;;;;;;;109.57;33.05;;;;;;;;;;5014422;28;20030;-75
2022/10/14 04:53:12;;;;;;;101.65;33.58;;;;;;;;;;5013882;28;20076;-75
2022/10/14 04:55:38;;;;;;;97.38;31.67;;;;;;;;;;5014129;28;20045;-75
2022/10/14 04:58:04;;;;;;;86.57;30.40;;;;;;;;;;5014254;28;20033;-75
2022/10/14 05:00:30;;;;;;;102.15;33.60;;;;;;;;;;5013981;28;20068;-76
2022/10/14 05:02:56;;;;;;;179.07;36.33;;;;;;;;;;4996566;28;20029;-75
2022/10/14 05:05:22;;;;;;;119.50;34.80;;;;;;;;;;4980135;28;20026;-75
2022/10/14 05:07:48;;;;;;;122.88;36.67;;;;;;;;;;4999964;28;20496;-75
2022/10/14 05:10:14;;;;;;;102.70;33.60;;;;;;;;;;5005004;28;20029;-75
2022/10/14 05:12:40;;;;;;;130.45;36.17;;;;;;;;;;4996591;28;20033;-75
2022/10/14 05:15:06;;;;;;;110.45;33.28;;;;;;;;;;5013813;28;20037;-76
2022/10/14 05:17:33;;;;;;;105.05;33.53;;;;;;;;;;4996273;28;20098;-76
2022/10/14 05:19:59;;;;;;;117.00;34.88;;;;;;;;;;5013751;28;20384;-75
2022/10/14 05:22:25;;;;;;;132.63;37.45;;;;;;;;;;4996047;28;20357;-75
2022/10/14 05:24:51;;;;;;;100.05;33.42;;;;;;;;;;5013524;28;20176;-75
2022/10/14 05:27:17;;;;;;;148.10;38.22;;;;;;;;;;5013763;28;20045;-75
2022/10/14 05:29:43;;;;;;;105.47;33.53;;;;;;;;;;5013753;28;20117;-75
2022/10/14 05:32:09;;;;;;;96.03;31.63;;;;;;;;;;5013290;28;20417;-75
2022/10/14 05:34:35;;;;;;;97.40;32.78;;;;;;;;;;5013553;28;20333;-76
2022/10/14 05:37:01;;;;;;;85.32;30.38;;;;;;;;;;5013166;28;20142;-75
2022/10/14 05:39:27;;;;;;;93.97;31.80;;;;;;;;;;5017467;28;20018;-75
2022/10/14 05:41:54;;;;;;;92.63;32.00;;;;;;;;;;5032899;28;20030;-76
2022/10/14 05:44:20;;;;;;;94.45;31.95;;;;;;;;;;5033070;28;20040;-75
2022/10/14 05:46:46;;;;;;;90.53;31.83;;;;;;;;;;5032784;28;20503;-75
2022/10/14 05:49:12;;;;;;;83.78;29.52;;;;;;;;;;5032939;28;20029;-75
2022/10/14 05:51:38;;;;;;;102.13;33.38;;;;;;;;;;5032626;28;20495;-76
2022/10/14 05:54:04;;;;;;;95.53;32.10;;;;;;;;;;5032435;28;20365;-76
2022/10/14 05:56:30;;;;;;;95.32;31.15;;;;;;;;;;5004281;28;20051;-75
2022/10/14 05:58:56;;;;;;;101.38;32.92;;;;;;;;;;4975896;28;20385;-75
2022/10/14 06:01:22;;;;;;;94.97;31.70;;;;;;;;;;4993187;28;20485;-75
2022/10/14 06:03:52;;;;;;;113.47;33.88;;;;;;;;;;4992215;28;20033;-74
2022/10/14 06:06:18;;;;;;;100.22;31.58;;;;;;;;;;4998051;28;20484;-75
2022/10/14 06:08:45;;;;;;;90.10;29.35;;;;;;;;;;5002568;28;20022;-75
2022/10/14 06:11:11;;;;;;;90.20;29.70;;;;;;;;;;5011305;28;20026;-75
2022/10/14 06:13:37;;;;;;;113.75;34.08;;;;;;;;;;5012957;28;20026;-75
2022/10/14 06:16:04;;;;;;;83.47;29.63;;;;;;;;;;5012924;28;20033;-75
2022/10/14 06:18:30;;;;;;;79.28;27.90;;;;;;;;;;5012791;28;20132;-75
2022/10/14 06:20:56;;;;;;;64.65;26.08;;;;;;;;;;4995209;28;20088;-76
2022/10/14 06:23:22;;;;;;;62.28;26.30;;;;;;;;;;5012682;28;20034;-76
2022/10/14 06:25:49;;;;;;;86.78;27.98;;;;;;;;;;4995832;28;20026;-76
2022/10/14 06:28:15;;;;;;;60.55;25.45;;;;;;;;;;4993116;28;20034;-76
2022/10/14 06:30:41;;;;;;;55.92;23.90;;;;;;;;;;4996494;28;20042;-76
2022/10/14 06:33:07;;;;;;;50.35;22.25;;;;;;;;;;5009337;28;20149;-75
2022/10/14 06:35:33;;;;;;;53.35;22.67;;;;;;;;;;5006564;28;20057;-75
2022/10/14 06:37:59;;;;;;;59.35;23.65;;;;;;;;;;5003909;28;20062;-75
2022/10/14 06:40:25;;;;;;;41.75;20.05;;;;;;;;;;5007504;28;20046;-75
2022/10/14 06:42:52;;;;;;;40.65;18.88;;;;;;;;;;4997274;28;20508;-75
2022/10/14 06:45:18;;;;;;;47.45;20.42;;;;;;;;;;5009655;28;20029;-75
2022/10/14 06:47:44;;;;;;;39.15;19.02;;;;;;;;;;5006994;28;20485;-75
2022/10/14 06:50:10;;;;;;;42.08;18.40;;;;;;;;;;5001522;28;20053;-75
2022/10/14 06:52:36;;;;;;;42.78;19.08;;;;;;;;;;4986755;28;20499;-76
2022/10/14 06:55:02;;;;;;;42.72;17.77;;;;;;;;;;4997576;28;20087;-76
2022/10/14 06:57:28;;;;;;;46.33;18.35;;;;;;;;;;4996810;28;20476;-76
2022/10/14 06:59:55;;;;;;;36.97;18.17;;;;;;;;;;4993997;28;20058;-76
2022/10/14 07:02:21;;;;;;;36.65;16.55;;;;;;;;;;5003196;28;20030;-76
2022/10/14 07:04:47;;;;;;;31.25;15.57;;;;;;;;;;4993819;28;20327;-75
2022/10/14 07:07:13;;;;;;;33.28;17.13;;;;;;;;;;5000093;28;20388;-75
2022/10/14 07:09:39;;;;;;;32.42;15.63;;;;;;;;;;5005213;28;20512;-76
2022/10/14 07:12:05;;;;;;;34.78;16.02;;;;;;;;;;4998735;28;20022;-76
2022/10/14 07:14:31;;;;;;;31.27;15.85;;;;;;;;;;4980973;28;20369;-75
2022/10/14 07:16:57;;;;;;;42.03;17.70;;;;;;;;;;5005764;28;20465;-75
2022/10/14 07:19:23;;;;;;;35.63;17.33;;;;;;;;;;5002156;28;20096;-75
2022/10/14 07:21:49;;;;;;;33.40;16.35;;;;;;;;;;5005472;28;20372;-76
2022/10/14 07:24:15;;;;;;;31.95;16.27;;;;;;;;;;5002877;28;20053;-76
2022/10/14 07:26:41;;;;;;;44.10;18.85;;;;;;;;;;4997408;28;20493;-76
2022/10/14 07:29:07;;;;;;;37.15;18.23;;;;;;;;;;5006259;28;20113;-76
2022/10/14 07:31:33;;;;;;;31.75;17.00;;;;;;;;;;5000525;28;20076;-76
2022/10/14 07:34:03;;;;;;;32.42;16.88;;;;;;;;;;5005154;28;20026;-76
2022/10/14 07:36:29;;;;;;;33.17;16.90;;;;;;;;;;5002840;28;20046;-76
2022/10/14 07:38:55;;;;;;;39.92;19.00;;;;;;;;;;5002656;28;20030;-75
2022/10/14 07:41:23;;;;;;;34.65;16.90;;;;;;;;;;5001847;28;20064;-76
2022/10/14 07:43:50;;;;;;;30.75;16.50;;;;;;;;;;4997502;28;20028;-76
2022/10/14 07:46:27;;;;;;;33.85;17.63;;;;;;;;;;5001871;28;20061;-75
2022/10/14 07:48:53;;;;;;;28.25;16.60;;;;;;;;;;4999949;28;20030;-76
2022/10/14 07:51:19;;;;;;;32.40;17.33;;;;;;;;;;5002053;28;20103;-76
2022/10/14 07:53:47;;;;;;;27.20;16.50;;;;;;;;;;5003153;28;20522;-75
2022/10/14 07:56:13;;;;;;;34.70;16.45;;;;;;;;;;4998715;28;20034;-75
2022/10/14 07:58:39;;;;;;;35.03;16.52;;;;;;;;;;5003429;28;20084;-76
2022/10/14 08:01:05;;;;;;;26.90;14.65;;;;;;;;;;5002770;28;20022;-75
2022/10/14 08:03:31;;;;;;;31.90;15.73;;;;;;;;;;5003109;28;20019;-75
2022/10/14 08:05:59;;;;;;;30.63;15.15;;;;;;;;;;4985890;28;20042;-75
2022/10/14 08:08:25;;;;;;;29.55;16.30;;;;;;;;;;5000375;28;20116;-75
2022/10/14 08:10:59;;;;;;;29.10;15.05;;;;;;;;;;4999133;28;20393;-75
2022/10/14 08:13:25;;;;;;;34.45;16.42;;;;;;;;;;4997474;28;20033;-75
2022/10/14 08:15:51;;;;;;;26.83;14.05;;;;;;;;;;4997976;28;20033;-75
2022/10/14 08:18:17;;;;;;;29.05;14.60;;;;;;;;;;5010071;28;20036;-76
2022/10/14 08:20:43;;;;;;;26.83;15.02;;;;;;;;;;5007384;28;20023;-75
2022/10/14 08:23:10;;;;;;;32.92;16.60;;;;;;;;;;4996613;28;20022;-76
2022/10/14 08:25:36;;;;;;;25.83;13.23;;;;;;;;;;5004685;28;20440;-76
2022/10/14 08:28:02;;;;;;;28.05;15.45;;;;;;;;;;5010365;28;20041;-75
2022/10/14 08:30:28;;;;;;;31.60;17.30;;;;;;;;;;5014543;28;20100;-76
2022/10/14 08:32:54;;;;;;;42.88;18.80;;;;;;;;;;5014435;28;20100;-76
2022/10/14 08:35:20;;;;;;;32.95;17.70;;;;;;;;;;5014757;28;20148;-76
2022/10/14 08:37:59;;;;;;;33.03;17.58;;;;;;;;;;4982238;28;20156;-76
2022/10/14 08:40:27;;;;;;;41.80;19.30;;;;;;;;;;4977347;28;20052;-75
2022/10/14 08:43:01;;;;;;;36.25;20.13;;;;;;;;;;5014659;28;20022;-75
2022/10/14 08:45:36;;;;;;;33.92;18.90;;;;;;;;;;5003558;28;20109;-76
2022/10/14 08:48:04;;;;;;;30.77;17.15;;;;;;;;;;5009190;28;20105;-75
2022/10/14 08:50:36;;;;;;;32.80;18.63;;;;;;;;;;5013913;28;20033;-74
2022/10/14 08:53:22;;;;;;;34.03;18.83;;;;;;;;;;5014176;28;20030;-75
2022/10/14 08:55:51;;;;;;;37.60;19.88;;;;;;;;;;5013988;28;20053;-75
2022/10/14 08:58:23;;;;;;;36.88;19.65;;;;;;;;;;5014019;28;20041;-75
2022/10/14 09:00:51;;;;;;;39.88;19.90;;;;;;;;;;4991189;28;20033;-75
2022/10/14 09:03:32;;;;;;;36.90;20.13;;;;;;;;;;4984458;28;20038;-74
2022/10/14 09:06:03;;;;;;;39.00;19.70;;;;;;;;;;4983538;28;20034;-75
2022/10/14 09:08:41;;;;;;;36.95;19.45;;;;;;;;;;4984793;28;20026;-74
2022/10/14 09:11:10;;;;;;;28.10;17.63;;;;;;;;;;4980999;28;20023;-74
2022/10/14 09:13:39;;;;;;;29.25;17.73;;;;;;;;;;4981732;28;20034;-75
2022/10/14 09:16:22;;;;;;;33.15;18.58;;;;;;;;;;4973209;28;20854;-75
2022/10/14 09:19:00;;;;;;;35.17;18.25;;;;;;;;;;4976647;28;20034;-75
2022/10/14 09:21:34;;;;;;;34.30;18.55;;;;;;;;;;4986171;28;20117;-75
2022/10/14 09:24:14;;;;;;;24.52;15.90;;;;;;;;;;4984576;28;20608;-74
2022/10/14 09:26:41;;;;;;;27.77;16.38;;;;;;;;;;4987567;28;20021;-74
2022/10/14 09:29:20;;;;;;;30.50;17.33;;;;;;;;;;4987976;28;20085;-75
2022/10/14 09:31:47;;;;;;;32.60;17.52;;;;;;;;;;4990880;28;20224;-75
2022/10/14 09:34:20;;;;;;;23.92;15.48;;;;;;;;;;4993683;28;20420;-77
2022/10/14 09:36:47;;;;;;;25.95;15.73;;;;;;;;;;4999919;28;20061;-76
2022/10/14 09:39:13;;;;;;;23.88;15.52;;;;;;;;;;5013655;28;20092;-76
2022/10/14 09:41:39;;;;;;;25.60;15.63;;;;;;;;;;5013620;28;20108;-77
2022/10/14 09:44:24;;;;;;;30.13;16.33;;;;;;;;;;4996076;28;20143;-76
2022/10/14 09:46:56;;;;;;;23.60;15.23;;;;;;;;;;4994156;28;20100;-76
2022/10/14 09:49:29;;;;;;;35.17;16.42;;;;;;;;;;4994195;28;20322;-76
2022/10/14 09:51:56;;;;;;;25.90;15.90;;;;;;;;;;4994238;28;20027;-76
2022/10/14 09:54:25;;;;;;;29.85;16.52;;;;;;;;;;4994121;28;20045;-76
2022/10/14 09:56:58;;;;;;;23.58;14.57;;;;;;;;;;5011167;28;20021;-76
2022/10/14 09:59:24;;;;;;;24.05;15.57;;;;;;;;;;5013363;28;20490;-76
2022/10/14 10:01:50;;;;;;;24.70;15.45;;;;;;;;;;5013550;28;20045;-76
2022/10/14 10:04:26;;;;;;;28.67;16.17;;;;;;;;;;5013316;28;20026;-76
2022/10/14 10:06:53;;;;;;;27.60;16.42;;;;;;;;;;4995026;28;20376;-76
2022/10/14 10:09:20;;;;;;;29.10;16.02;;;;;;;;;;5013268;28;20046;-77
2022/10/14 10:11:46;;;;;;;25.88;16.25;;;;;;;;;;5013474;28;20135;-76
2022/10/14 10:14:23;;;;;;;30.80;16.70;;;;;;;;;;4995645;28;20337;-76
2022/10/14 10:16:50;;;;;;;29.08;16.10;;;;;;;;;;5013153;28;20026;-76
2022/10/14 10:19:20;;;;;;;22.50;15.57;;;;;;;;;;4995585;28;20034;-76
2022/10/14 10:21:46;;;;;;;28.75;15.40;;;;;;;;;;5013121;28;20029;-76
2022/10/14 10:24:20;;;;;;;24.23;16.10;;;;;;;;;;5013282;28;20109;-76
2022/10/14 10:26:46;;;;;;;26.92;16.45;;;;;;;;;;5012773;28;20020;-77
2022/10/14 10:29:23;;;;;;;28.83;16.85;;;;;;;;;;5009865;28;20153;-75
2022/10/14 10:31:49;;;;;;;28.00;17.10;;;;;;;;;;5012444;28;20030;-75
2022/10/14 10:34:21;;;;;;;25.10;16.87;;;;;;;;;;5003916;28;20026;-75
2022/10/14 10:36:56;;;;;;;29.83;18.35;;;;;;;;;;5008308;28;20062;-75
2022/10/14 10:39:25;;;;;;;27.48;17.15;;;;;;;;;;5002171;28;20017;-76
2022/10/14 10:42:00;;;;;;;28.50;16.58;;;;;;;;;;5003509;28;20019;-78
2022/10/14 10:44:26;;;;;;;22.35;15.80;;;;;;;;;;5001343;28;20010;-77
2022/10/14 10:47:04;;;;;;;21.80;15.55;;;;;;;;;;5022148;28;20344;-77
2022/10/14 10:49:50;;;;;;;25.42;16.35;;;;;;;;;;5029609;28;20017;-77
2022/10/14 10:52:22;;;;;;;24.42;15.20;;;;;;;;;;4994589;28;20036;-76
2022/10/14 10:55:02;;;;;;;23.40;15.50;;;;;;;;;;4999833;28;20026;-76
2022/10/14 10:57:47;;;;;;;22.58;15.23;;;;;;;;;;4998482;28;20032;-76
2022/10/14 11:00:15;;;;;;;21.35;15.02;;;;;;;;;;5000769;28;20500;-76
2022/10/14 11:02:53;;;;;;;27.23;16.13;;;;;;;;;;5003825;28;20604;-76
2022/10/14 11:05:22;;;;;;;24.17;15.77;;;;;;;;;;4991480;28;20085;-76
2022/10/14 11:13:55;;;;;;;24.23;15.10;;;;;;;;;;5021138;28;20032;-76
2022/10/14 11:16:38;;;;;;;23.60;14.70;;;;;;;;;;4993452;28;20120;-77
2022/10/14 11:19:04;;;;;;;24.40;14.98;;;;;;;;;;5011341;28;20118;-76
2022/10/14 11:21:37;;;;;;;27.52;15.50;;;;;;;;;;5011418;28;20049;-76
2022/10/14 11:24:03;;;;;;;22.13;14.77;;;;;;;;;;5011329;28;20150;-76
2022/10/14 11:26:48;;;;;;;25.42;16.38;;;;;;;;;;5011317;28;20076;-79
2022/10/14 11:29:37;;;;;;;21.95;14.60;;;;;;;;;;5011197;28;20448;-80
2022/10/14 11:32:21;;;;;;;21.42;13.45;;;;;;;;;;4975751;28;20034;-78
2022/10/14 11:34:47;;;;;;;19.00;12.88;;;;;;;;;;5015621;28;20037;-80
2022/10/14 11:37:34;;;;;;;20.27;13.35;;;;;;;;;;5026643;28;20041;-79
2022/10/14 11:40:05;;;;;;;19.45;13.45;;;;;;;;;;5020041;28;20022;-79
2022/10/14 11:42:34;;;;;;;23.13;12.82;;;;;;;;;;4992519;28;20105;-79
2022/10/14 11:45:09;;;;;;;18.48;12.25;;;;;;;;;;5000395;28;20037;-79
2022/10/14 11:47:38;;;;;;;19.95;13.15;;;;;;;;;;5003875;28;20100;-77
2022/10/14 11:50:10;;;;;;;20.25;14.65;;;;;;;;;;5015142;28;20454;-77
2022/10/14 11:52:38;;;;;;;22.05;14.77;;;;;;;;;;5001257;28;20034;-78
2022/10/14 11:55:10;;;;;;;17.00;12.55;;;;;;;;;;5000755;28;20018;-78
2022/10/14 11:57:44;;;;;;;19.85;13.60;;;;;;;;;;4992746;28;20026;-76
2022/10/14 12:00:16;;;;;;;20.90;14.70;;;;;;;;;;5006322;28;20361;-76
2022/10/14 12:02:56;;;;;;;24.50;13.40;;;;;;;;;;5001407;28;20101;-77
2022/10/14 12:05:22;;;;;;;20.58;14.05;;;;;;;;;;5007240;28;20023;-76
2022/10/14 12:07:55;;;;;;;18.05;13.07;;;;;;;;;;5012361;28;20084;-76
2022/10/14 12:10:25;;;;;;;17.00;13.10;;;;;;;;;;5026345;28;20022;-76
2022/10/14 12:12:52;;;;;;;16.52;12.30;;;;;;;;;;5032185;28;20029;-76
2022/10/14 12:15:22;;;;;;;16.02;11.93;;;;;;;;;;4997309;28;20132;-76
2022/10/14 12:17:57;;;;;;;16.38;11.50;;;;;;;;;;5014759;28;20026;-76
2022/10/14 12:20:26;;;;;;;15.02;10.73;;;;;;;;;;4997220;28;20092;-76
2022/10/14 12:22:52;;;;;;;17.45;11.75;;;;;;;;;;5023166;28;20022;-77
2022/10/14 12:25:22;;;;;;;14.18;10.07;;;;;;;;;;5028832;28;20183;-77
2022/10/14 12:27:49;;;;;;;14.45;10.32;;;;;;;;;;5023138;28;20072;-77
2022/10/14 12:30:41;;;;;;;13.02;9.00;;;;;;;;;;4997092;28;20038;-80
2022/10/14 12:33:09;;;;;;;11.43;8.55;;;;;;;;;;5011028;28;20069;-80
2022/10/14 12:35:58;;;;;;;12.40;8.98;;;;;;;;;;5007139;28;20068;-80
2022/10/14 12:38:25;;;;;;;14.32;9.88;;;;;;;;;;5015033;28;20049;-80
2022/10/14 12:40:51;;;;;;;11.13;8.40;;;;;;;;;;5014928;28;20456;-80
2022/10/14 12:43:17;;;;;;;12.65;9.23;;;;;;;;;;5015132;28;20073;-81
2022/10/14 12:45:47;;;;;;;13.23;9.93;;;;;;;;;;5001587;28;20022;-80
2022/10/14 12:48:17;;;;;;;10.75;8.85;;;;;;;;;;5006381;28;20026;-80
2022/10/14 12:50:45;;;;;;;10.82;8.57;;;;;;;;;;5015004;28;20030;-81
2022/10/14 12:53:25;;;;;;;12.57;8.90;;;;;;;;;;4996964;28;20042;-80
2022/10/14 12:56:10;;;;;;;11.93;8.50;;;;;;;;;;4995267;28;20087;-80
2022/10/14 12:58:38;;;;;;;10.77;7.60;;;;;;;;;;4977864;28;20117;-81
2022/10/14 13:01:17;;;;;;;11.13;8.60;;;;;;;;;;4977538;28;20031;-79
2022/10/14 13:03:45;;;;;;;11.75;8.48;;;;;;;;;;4992159;28;20014;-80
2022/10/14 13:06:30;;;;;;;11.35;8.40;;;;;;;;;;5008579;28;20137;-80
2022/10/14 13:09:16;;;;;;;9.57;7.10;;;;;;;;;;5011661;28;20076;-80
2022/10/14 13:11:43;;;;;;;8.45;7.15;;;;;;;;;;4996607;28;20025;-80
2022/10/14 13:14:26;;;;;;;6.78;6.07;;;;;;;;;;5013905;28;20040;-80
2022/10/14 13:16:52;;;;;;;10.98;6.63;;;;;;;;;;5008167;28;20550;-80
2022/10/14 13:19:33;;;;;;;7.32;6.00;;;;;;;;;;4977088;28;20031;-79
2022/10/14 13:22:03;;;;;;;8.23;6.45;;;;;;;;;;4994420;28;20029;-76
2022/10/14 13:24:31;;;;;;;9.13;5.93;;;;;;;;;;5003228;28;20469;-76
2022/10/14 13:27:13;;;;;;;7.55;6.03;;;;;;;;;;4994294;28;20041;-75
2022/10/14 13:30:11;;;;;;;9.07;6.07;;;;;;;;;;5011972;28;20021;-75
2022/10/14 13:32:42;;;;;;;6.97;5.32;;;;;;;;;;4988159;28;20042;-75
2022/10/14 13:35:17;;;;;;;12.02;5.88;;;;;;;;;;5012063;28;20026;-75
2022/10/14 13:37:45;;;;;;;8.13;6.30;;;;;;;;;;5012619;28;20042;-75
2022/10/14 13:40:30;;;;;;;8.88;6.63;;;;;;;;;;5009706;28;20354;-75
2022/10/14 13:42:57;;;;;;;7.75;5.78;;;;;;;;;;5002709;28;20385;-75
2022/10/14 13:45:28;;;;;;;9.52;6.75;;;;;;;;;;5003945;28;20026;-75
2022/10/14 13:47:54;;;;;;;12.27;6.93;;;;;;;;;;5012587;28;20058;-75
2022/10/14 13:50:22;;;;;;;11.68;6.30;;;;;;;;;;4994933;28;20431;-75
2022/10/14 13:52:53;;;;;;;10.00;7.13;;;;;;;;;;4993780;28;20062;-75
2022/10/14 13:55:22;;;;;;;9.25;6.25;;;;;;;;;;4992268;28;20385;-75
2022/10/14 13:58:00;;;;;;;10.95;6.75;;;;;;;;;;5012545;28;20026;-76
2022/10/14 14:00:26;;;;;;;12.70;7.07;;;;;;;;;;4994652;28;20018;-76
2022/10/14 14:02:52;;;;;;;10.35;7.45;;;;;;;;;;5012343;28;20161;-77
2022/10/14 14:05:19;;;;;;;11.95;7.60;;;;;;;;;;4992987;28;20057;-76
2022/10/14 14:07:46;;;;;;;9.27;7.40;;;;;;;;;;5005233;28;20057;-75
2022/10/14 14:10:17;;;;;;;12.30;8.23;;;;;;;;;;4996915;28;20034;-76
2022/10/14 14:12:43;;;;;;;11.65;8.27;;;;;;;;;;5000136;28;20049;-76
2022/10/14 14:15:23;;;;;;;11.57;7.70;;;;;;;;;;4983419;28;20026;-76
2022/10/14 14:17:50;;;;;;;10.43;7.88;;;;;;;;;;5000601;28;20105;-76
2022/10/14 14:20:22;;;;;;;11.40;7.75;;;;;;;;;;5006941;28;20022;-75
2022/10/14 14:22:49;;;;;;;11.63;8.10;;;;;;;;;;5009168;28;20021;-75
2022/10/14 14:25:18;;;;;;;9.77;6.95;;;;;;;;;;5010261;28;20036;-75
2022/10/14 14:27:54;;;;;;;10.75;7.53;;;;;;;;;;5011900;28;20025;-75
2022/10/14 14:30:22;;;;;;;11.82;7.47;;;;;;;;;;5002402;28;20030;-76
2022/10/14 14:32:48;;;;;;;15.70;7.80;;;;;;;;;;5012023;28;20474;-75
2022/10/14 14:35:17;;;;;;;12.20;7.03;;;;;;;;;;5011396;28;20038;-76